Time;durP1;ratioP1;P1;durP2;ratioP2;P2;SDS_P1;SDS_P2;PMS_P1;PMS_P2;Temp;Humidity;BMP_temperature;BMP_pressure;BME280_temperature;BME280_humidity;BME280_pressure;Samples;Min_cycle;Max_cycle;Signal;HPM_P1;HPM_P2
2023/09/24 00:02:10;;;;;;;5.87;2.90;;;;;;;14.06;66.40;96880.78;4986712;28;20491;-68
2023/09/24 00:04:35;;;;;;;5.50;3.03;;;;;;;14.14;66.58;96886.53;4976713;28;20417;-69
2023/09/24 00:07:00;;;;;;;5.60;2.83;;;;;;;14.17;66.43;96886.41;4967224;28;20431;-68
2023/09/24 00:09:26;;;;;;;6.67;3.50;;;;;;;14.22;65.98;96882.66;4968715;28;20177;-68
2023/09/24 00:11:51;;;;;;;5.57;3.00;;;;;;;14.15;66.75;96896.16;4970384;28;20173;-68
2023/09/24 00:14:16;;;;;;;5.30;3.43;;;;;;;14.17;66.80;96893.44;4970363;28;20165;-69
2023/09/24 00:16:42;;;;;;;4.53;2.63;;;;;;;14.22;66.45;96894.09;4970157;28;20263;-69
2023/09/24 00:19:07;;;;;;;5.23;3.40;;;;;;;14.16;66.44;96887.31;4970522;28;20184;-69
2023/09/24 00:21:32;;;;;;;4.33;2.90;;;;;;;14.26;65.78;96892.97;4970163;28;20265;-68
2023/09/24 00:23:58;;;;;;;3.07;2.57;;;;;;;14.14;66.09;96888.31;4968776;28;20227;-68
2023/09/24 00:26:24;;;;;;;5.10;3.33;;;;;;;14.21;65.49;96889.72;4969750;28;20174;-68
2023/09/24 00:28:50;;;;;;;4.83;2.80;;;;;;;14.35;64.97;96889.03;4970220;28;20232;-67
2023/09/24 00:31:16;;;;;;;3.50;2.30;;;;;;;14.27;64.87;96893.81;4970286;28;20482;-69
2023/09/24 00:33:41;;;;;;;3.03;2.40;;;;;;;14.12;65.23;96891.03;4970165;28;20897;-69
2023/09/24 00:36:07;;;;;;;5.57;2.67;;;;;;;14.11;65.29;96897.25;4969617;28;20618;-67
2023/09/24 00:38:32;;;;;;;3.73;2.40;;;;;;;14.10;65.19;96895.56;4969665;28;20185;-69
2023/09/24 00:40:57;;;;;;;4.27;2.87;;;;;;;14.08;65.70;96892.13;4969780;28;20737;-68
2023/09/24 00:43:33;;;;;;;6.73;3.60;;;;;;;14.18;65.02;96896.00;4969832;28;20197;-67
2023/09/24 00:46:07;;;;;;;4.93;2.67;;;;;;;14.13;65.08;96892.75;4969211;28;20177;-68
2023/09/24 00:48:33;;;;;;;3.20;2.43;;;;;;;14.15;65.06;96892.69;4969394;28;21099;-65
2023/09/24 00:51:01;;;;;;;3.37;2.60;;;;;;;14.16;64.85;96903.16;4969721;28;20496;-66
2023/09/24 00:53:29;;;;;;;5.07;2.63;;;;;;;14.21;64.55;96899.44;4969443;28;20181;-67
2023/09/24 00:55:58;;;;;;;7.57;2.83;;;;;;;14.16;64.52;96897.03;4969243;28;20488;-68
2023/09/24 00:58:25;;;;;;;5.13;3.00;;;;;;;14.09;64.93;96891.19;4969936;28;20443;-67
2023/09/24 01:00:53;;;;;;;6.30;3.40;;;;;;;13.95;65.41;96898.94;4969775;28;20409;-69
2023/09/24 01:03:20;;;;;;;8.90;3.17;;;;;;;13.88;65.76;96900.16;4971851;28;20413;-68
2023/09/24 01:05:49;;;;;;;6.60;4.03;;;;;;;14.00;65.02;96898.72;4988720;28;20404;-69
2023/09/24 01:08:16;;;;;;;4.30;2.63;;;;;;;13.87;65.77;96911.66;4988434;28;20467;-69
2023/09/24 01:10:44;;;;;;;4.80;2.80;;;;;;;13.79;65.77;96916.44;4988380;28;20962;-68
2023/09/24 01:13:09;;;;;;;4.80;2.10;;;;;;;13.84;66.03;96917.06;4988236;28;20435;-69
2023/09/24 01:15:35;;;;;;;4.67;2.70;;;;;;;13.58;66.46;96907.78;4988197;28;20460;-69
2023/09/24 01:18:02;;;;;;;4.10;2.60;;;;;;;13.66;66.43;96908.28;4988174;28;20721;-68
2023/09/24 01:20:31;;;;;;;5.10;2.63;;;;;;;13.54;67.11;96901.81;4988461;28;20173;-68
2023/09/24 01:22:59;;;;;;;3.90;2.50;;;;;;;13.58;66.64;96903.34;4990272;28;20412;-68
2023/09/24 01:25:24;;;;;;;5.07;2.67;;;;;;;13.64;66.22;96908.34;4987928;28;20408;-68
2023/09/24 01:27:50;;;;;;;6.90;3.23;;;;;;;13.58;66.57;96898.06;4988438;28;20428;-67
2023/09/24 01:30:15;;;;;;;5.13;3.10;;;;;;;13.51;67.04;96904.56;4988649;28;20207;-68
2023/09/24 01:32:41;;;;;;;4.43;2.90;;;;;;;13.41;67.33;96911.22;4988340;28;20599;-69
2023/09/24 01:35:07;;;;;;;6.07;3.10;;;;;;;13.35;67.65;96909.72;4988339;28;20300;-66
2023/09/24 01:37:34;;;;;;;4.83;3.20;;;;;;;13.40;67.56;96912.16;4987968;28;20695;-69
2023/09/24 01:40:42;;;;;;;4.50;3.33;;;;;;;13.20;67.64;96921.78;4988125;28;20408;-69
2023/09/24 01:43:02;;;;;;;7.40;3.03;;;;;;;13.25;67.58;96925.09;4982961;28;20432;-68
2023/09/24 01:45:28;;;;;;;6.00;3.03;;;;;;;13.39;67.38;96913.06;4987652;28;20409;-66
2023/09/24 01:47:55;;;;;;;6.33;3.07;;;;;;;13.32;67.40;96920.41;4988063;28;20994;-68
2023/09/24 01:50:27;;;;;;;3.13;2.30;;;;;;;13.38;67.63;96927.19;4987696;28;20173;-67
2023/09/24 01:52:58;;;;;;;6.27;3.57;;;;;;;13.30;67.69;96920.50;4987755;28;20941;-69
2023/09/24 01:55:27;;;;;;;5.13;2.63;;;;;;;13.13;68.65;96921.25;4986415;28;21104;-68
2023/09/24 01:57:54;;;;;;;7.53;3.13;;;;;;;13.08;69.13;96927.63;4987837;28;20444;-67
2023/09/24 02:00:26;;;;;;;4.40;2.70;;;;;;;13.05;69.41;96930.41;4987809;28;20978;-68
2023/09/24 02:02:57;;;;;;;8.23;2.63;;;;;;;13.03;68.87;96932.25;4987970;28;20918;-69
2023/09/24 02:05:23;;;;;;;4.43;2.57;;;;;;;13.02;69.17;96931.41;4970457;28;20416;-67
2023/09/24 02:07:49;;;;;;;3.33;2.50;;;;;;;13.02;68.43;96925.28;4968123;28;20433;-68
2023/09/24 02:10:18;;;;;;;4.57;2.50;;;;;;;13.13;67.80;96928.28;4967982;28;20169;-68
2023/09/24 02:12:46;;;;;;;5.60;2.90;;;;;;;13.10;67.81;96933.69;4967957;28;20177;-68
2023/09/24 02:15:14;;;;;;;5.60;2.63;;;;;;;13.02;68.14;96936.69;4968308;28;20479;-67
2023/09/24 02:17:39;;;;;;;4.33;2.00;;;;;;;13.08;68.33;96932.91;4967883;28;20425;-69
2023/09/24 02:20:31;;;;;;;3.90;2.10;;;;;;;13.22;67.05;96934.91;4968236;28;20408;-68
2023/09/24 02:22:59;;;;;;;7.60;2.83;;;;;;;13.14;67.14;96940.53;4966608;28;20188;-68
2023/09/24 02:25:29;;;;;;;2.83;1.97;;;;;;;12.93;68.10;96952.88;4967628;28;20420;-68
2023/09/24 02:27:55;;;;;;;3.03;2.03;;;;;;;12.84;67.99;96943.59;4967636;28;20444;-69
2023/09/24 02:30:22;;;;;;;7.77;2.77;;;;;;;12.55;69.24;96950.16;4967736;28;20452;-68
2023/09/24 02:32:48;;;;;;;4.10;2.23;;;;;;;12.28;69.78;96958.31;4967781;28;21282;-68
2023/09/24 02:35:14;;;;;;;2.97;2.27;;;;;;;12.11;71.15;96967.81;4967269;28;20519;-68
2023/09/24 02:37:44;;;;;;;3.23;2.20;;;;;;;11.93;71.51;96966.75;4967613;28;20197;-67
2023/09/24 02:42:46;;;;;;;3.80;2.20;;;;;;;12.49;70.23;96961.78;4967683;28;20479;-68
2023/09/24 02:45:12;;;;;;;7.83;3.57;;;;;;;12.60;68.79;96965.75;4967515;28;20416;-67
2023/09/24 02:47:38;;;;;;;5.53;2.33;;;;;;;12.65;69.33;96966.41;4967312;28;20598;-67
2023/09/24 02:50:13;;;;;;;26.17;4.70;;;;;;;12.75;68.30;96957.19;4967915;28;20941;-69
2023/09/24 02:52:43;;;;;;;6.50;2.53;;;;;;;12.96;67.71;96968.56;4967715;28;20169;-68
2023/09/24 02:55:16;;;;;;;4.53;2.70;;;;;;;12.89;67.76;96978.50;4967066;28;21266;-68
2023/09/24 02:57:44;;;;;;;3.10;2.67;;;;;;;12.97;68.18;96969.41;4967154;28;20967;-68
2023/09/24 03:00:18;;;;;;;9.07;2.90;;;;;;;12.85;68.14;96979.59;4967353;28;20416;-68
2023/09/24 03:02:45;;;;;;;7.47;2.33;;;;;;;12.63;68.43;96978.78;4967833;28;20420;-69
2023/09/24 03:05:19;;;;;;;6.17;2.97;;;;;;;12.58;68.48;96978.13;4982290;28;20487;-68
2023/09/24 03:07:45;;;;;;;3.77;3.43;;;;;;;12.63;68.40;96976.16;4985143;28;20439;-68
2023/09/24 03:10:13;;;;;;;5.20;2.93;;;;;;;12.66;68.43;96981.28;4986669;28;20467;-69
2023/09/24 03:12:39;;;;;;;8.53;2.60;;;;;;;12.72;67.81;96991.56;4986852;28;20416;-68
2023/09/24 03:15:05;;;;;;;4.00;2.50;;;;;;;12.75;68.42;96995.84;4987042;28;20455;-69
2023/09/24 03:17:32;;;;;;;6.80;2.73;;;;;;;12.79;67.38;96995.63;4986537;28;20420;-69
2023/09/24 03:19:58;;;;;;;6.13;2.57;;;;;;;12.57;67.99;96995.72;4986701;28;21197;-69
2023/09/24 03:22:24;;;;;;;3.67;2.70;;;;;;;12.60;68.14;96998.19;4986573;28;20414;-67
2023/09/24 03:24:50;;;;;;;6.27;2.77;;;;;;;12.78;67.67;97001.84;4988364;28;20649;-67
2023/09/24 03:27:15;;;;;;;10.10;2.40;;;;;;;12.73;68.01;97003.78;4990197;28;20431;-68
2023/09/24 03:29:43;;;;;;;4.47;2.73;;;;;;;12.77;67.17;97012.44;4990926;28;20671;-67
2023/09/24 03:32:08;;;;;;;5.90;2.97;;;;;;;12.63;67.34;97019.13;4989235;28;20207;-67
2023/09/24 03:34:34;;;;;;;6.67;2.87;;;;;;;12.54;68.16;97016.88;4990411;28;20443;-68
2023/09/24 03:36:59;;;;;;;4.23;2.80;;;;;;;12.20;68.99;97026.16;4990046;28;20196;-68
2023/09/24 03:39:25;;;;;;;5.83;2.80;;;;;;;11.96;70.30;97024.53;4990783;28;20422;-68
2023/09/24 03:41:51;;;;;;;2.77;2.37;;;;;;;11.72;71.05;97026.31;4991123;28;20197;-67
2023/09/24 03:44:16;;;;;;;7.73;2.80;;;;;;;11.80;71.16;97037.38;4990967;28;20315;-69
2023/09/24 03:46:41;;;;;;;3.00;2.60;;;;;;;11.87;70.51;97038.88;4990350;28;20173;-68
2023/09/24 03:49:07;;;;;;;8.53;2.90;;;;;;;11.86;71.09;97048.53;4990526;28;20353;-67
2023/09/24 03:51:32;;;;;;;5.93;2.73;;;;;;;11.96;70.76;97049.06;4990770;28;20181;-69
2023/09/24 03:53:58;;;;;;;6.80;3.00;;;;;;;11.77;72.74;97050.66;4990657;28;20177;-68
2023/09/24 03:56:24;;;;;;;9.33;3.30;;;;;;;12.06;72.59;97046.91;4990166;28;20212;-67
2023/09/24 03:58:49;;;;;;;5.40;3.20;;;;;;;12.20;72.04;97046.38;4989956;28;21283;-67
2023/09/24 04:01:15;;;;;;;6.63;3.50;;;;;;;12.24;70.97;97045.34;4990243;28;20693;-68
2023/09/24 04:03:40;;;;;;;3.70;2.70;;;;;;;12.46;70.46;97050.56;4986909;28;20193;-68
2023/09/24 04:06:10;;;;;;;17.63;3.50;;;;;;;12.44;70.64;97047.16;4971978;28;20171;-67
2023/09/24 04:08:36;;;;;;;5.33;2.93;;;;;;;12.27;71.00;97045.19;4970402;28;20256;-67
2023/09/24 04:11:01;;;;;;;3.13;2.60;;;;;;;12.20;71.14;97043.72;4970497;28;20769;-69
2023/09/24 04:13:27;;;;;;;5.63;3.27;;;;;;;12.18;70.86;97048.19;4970310;28;20256;-67
2023/09/24 04:15:52;;;;;;;5.87;3.00;;;;;;;11.82;72.65;97065.31;4970105;28;20198;-67
2023/09/24 04:18:18;;;;;;;3.40;2.50;;;;;;;11.85;72.16;97053.81;4969914;28;20213;-67
2023/09/24 04:20:44;;;;;;;3.40;2.07;;;;;;;11.70;72.83;97065.78;4970257;28;20288;-68
2023/09/24 04:23:11;;;;;;;5.53;3.10;;;;;;;11.73;72.20;97070.94;4970135;28;20181;-66
2023/09/24 04:25:37;;;;;;;6.87;3.23;;;;;;;11.84;72.01;97068.75;4964803;28;20217;-68
2023/09/24 04:28:04;;;;;;;8.30;3.20;;;;;;;11.82;71.23;97073.22;4967629;28;21402;-67
2023/09/24 04:30:29;;;;;;;5.83;3.17;;;;;;;11.97;71.33;97073.56;4970044;28;20797;-69
2023/09/24 04:32:56;;;;;;;6.47;2.93;;;;;;;12.00;71.38;97074.31;4970304;28;20413;-69
2023/09/24 04:35:22;;;;;;;8.70;3.67;;;;;;;12.22;70.75;97073.47;4969333;28;20224;-67
2023/09/24 04:37:51;;;;;;;11.23;3.80;;;;;;;12.19;70.69;97078.84;4969878;28;21108;-68
2023/09/24 04:40:18;;;;;;;18.13;4.80;;;;;;;12.11;70.67;97084.41;4969787;28;20181;-68
2023/09/24 04:42:45;;;;;;;7.17;5.23;;;;;;;11.87;70.72;97091.47;4969627;28;20420;-68
2023/09/24 04:45:12;;;;;;;7.77;3.90;;;;;;;11.80;71.26;97092.59;4969510;28;20471;-67
2023/09/24 04:47:39;;;;;;;17.93;3.80;;;;;;;11.68;71.03;97098.31;4969273;28;20432;-68
2023/09/24 04:50:05;;;;;;;12.83;4.53;;;;;;;11.55;71.63;97098.78;4969738;28;20420;-67
2023/09/24 04:52:31;;;;;;;5.00;3.20;;;;;;;11.55;71.38;97095.28;4969535;28;20433;-69
2023/09/24 04:54:57;;;;;;;9.60;3.37;;;;;;;11.56;71.83;97097.00;4969606;28;21045;-68
2023/09/24 04:57:22;;;;;;;3.33;3.03;;;;;;;11.34;72.47;97094.28;4969137;28;20453;-68
2023/09/24 04:59:47;;;;;;;5.90;3.40;;;;;;;11.56;71.50;97097.84;4969786;28;20173;-68
2023/09/24 05:02:13;;;;;;;5.13;3.90;;;;;;;11.68;70.90;97090.44;4969676;28;20181;-68
2023/09/24 05:04:38;;;;;;;7.80;3.37;;;;;;;11.62;71.17;97097.63;4969371;28;20189;-68
2023/09/24 05:07:04;;;;;;;4.63;3.00;;;;;;;11.61;71.77;97101.16;4969044;28;20204;-68
2023/09/24 05:09:30;;;;;;;4.73;3.10;;;;;;;11.61;70.65;97102.94;4968815;28;20200;-69
2023/09/24 05:11:55;;;;;;;6.30;2.47;;;;;;;11.55;70.74;97104.03;4971991;28;20224;-67
2023/09/24 05:14:20;;;;;;;3.37;2.67;;;;;;;11.57;70.53;97094.28;4971363;28;20413;-67
2023/09/24 05:16:47;;;;;;;6.43;2.80;;;;;;;11.71;69.72;97100.81;4969205;28;20216;-69
2023/09/24 05:19:13;;;;;;;4.80;2.60;;;;;;;11.45;70.71;97103.47;4969113;28;20182;-67
2023/09/24 05:21:38;;;;;;;3.20;2.90;;;;;;;11.56;70.33;97105.75;4969366;28;20444;-68
2023/09/24 05:24:04;;;;;;;3.23;2.70;;;;;;;11.67;69.79;97113.25;4969234;28;20272;-68
2023/09/24 05:26:29;;;;;;;3.70;2.60;;;;;;;11.79;69.05;97115.41;4968744;28;20659;-67
2023/09/24 05:28:54;;;;;;;3.47;2.73;;;;;;;11.83;68.66;97124.91;4969068;28;20272;-69
2023/09/24 05:31:21;;;;;;;3.50;2.33;;;;;;;11.77;69.34;97124.28;4968781;28;20216;-68
2023/09/24 05:33:47;;;;;;;4.17;2.43;;;;;;;11.82;69.30;97125.81;4968943;28;20652;-68
2023/09/24 05:36:13;;;;;;;3.57;2.80;;;;;;;12.57;66.13;97132.63;4968832;28;20489;-68
2023/09/24 05:38:38;;;;;;;4.20;2.87;;;;;;;13.17;63.66;97124.00;4968828;28;20548;-69
2023/09/24 05:41:05;;;;;;;4.70;2.80;;;;;;;13.75;62.24;97122.34;4968621;28;20184;-68
2023/09/24 05:43:31;;;;;;;10.17;3.20;;;;;;;14.10;60.57;97127.81;4970393;28;20197;-68
2023/09/24 05:45:56;;;;;;;4.13;2.70;;;;;;;14.58;58.34;97129.09;4968131;28;20784;-68
2023/09/24 05:48:22;;;;;;;4.43;2.50;;;;;;;14.75;57.88;97127.41;4967611;28;20224;-68
2023/09/24 05:50:47;;;;;;;2.50;1.90;;;;;;;15.08;56.91;97116.94;4968356;28;20173;-68
2023/09/24 05:53:14;;;;;;;4.43;2.70;;;;;;;15.69;54.78;97114.72;4968154;28;20173;-67
2023/09/24 05:55:39;;;;;;;8.10;2.50;;;;;;;15.81;54.14;97114.09;4967916;28;20214;-68
2023/09/24 05:58:08;;;;;;;3.53;2.57;;;;;;;16.22;52.57;97114.47;4967858;28;20540;-68
2023/09/24 06:00:37;;;;;;;4.67;2.40;;;;;;;17.07;50.06;97112.38;4968252;28;21151;-67
2023/09/24 06:03:03;;;;;;;14.73;4.03;;;;;;;17.65;48.75;97111.56;4968051;28;20517;-68
2023/09/24 06:05:29;;;;;;;15.37;4.30;;;;;;;17.63;48.46;97109.94;4967768;28;20842;-68
2023/09/24 06:07:55;;;;;;;11.20;3.07;;;;;;;18.16;47.14;97108.44;4967945;28;20623;-67
2023/09/24 06:10:21;;;;;;;14.47;3.30;;;;;;;18.17;46.84;97102.19;4968014;28;20205;-69
2023/09/24 06:12:47;;;;;;;11.40;3.50;;;;;;;18.52;45.84;97107.91;4968071;28;20904;-66
2023/09/24 06:15:13;;;;;;;11.93;3.37;;;;;;;18.72;45.35;97111.94;4967870;28;20220;-66
2023/09/24 06:17:39;;;;;;;5.03;2.63;;;;;;;18.93;44.77;97107.03;4967854;28;20436;-69
2023/09/24 06:20:06;;;;;;;7.27;3.00;;;;;;;19.10;44.39;97113.03;4967892;28;20440;-69
2023/09/24 06:22:31;;;;;;;16.27;5.30;;;;;;;19.52;43.29;97116.44;4967989;28;21074;-68
2023/09/24 06:24:57;;;;;;;19.70;5.07;;;;;;;19.89;42.50;97114.78;4967729;28;20504;-67
2023/09/24 06:27:22;;;;;;;13.13;4.10;;;;;;;20.19;41.76;97114.41;4967304;28;20236;-67
2023/09/24 06:29:47;;;;;;;17.00;4.60;;;;;;;20.58;41.03;97117.88;4967713;28;20253;-68
2023/09/24 06:32:13;;;;;;;11.10;2.80;;;;;;;21.03;40.09;97117.25;4967668;28;20251;-68
2023/09/24 06:34:38;;;;;;;6.97;3.23;;;;;;;21.64;38.76;97117.09;4967856;28;20645;-68
2023/09/24 06:37:04;;;;;;;6.63;3.20;;;;;;;21.70;38.19;97111.28;4967412;28;20212;-69
2023/09/24 06:39:31;;;;;;;4.93;3.17;;;;;;;21.99;37.58;97117.03;4967635;28;20169;-69
2023/09/24 06:41:56;;;;;;;3.70;3.03;;;;;;;21.76;38.24;97117.03;4967598;28;20177;-68
2023/09/24 06:44:23;;;;;;;6.97;3.20;;;;;;;21.62;38.48;97119.91;4967590;28;21218;-68
2023/09/24 06:46:52;;;;;;;4.43;2.60;;;;;;;20.44;41.59;97131.31;4967056;28;20176;-68
2023/09/24 06:49:17;;;;;;;5.23;3.33;;;;;;;21.48;39.44;97122.78;4967316;28;20413;-68
2023/09/24 06:51:43;;;;;;;6.57;2.83;;;;;;;22.22;37.45;97127.78;4967377;28;20416;-67
2023/09/24 06:54:08;;;;;;;18.73;3.83;;;;;;;22.14;37.99;97121.19;4967631;28;20249;-68
2023/09/24 06:56:33;;;;;;;8.63;4.13;;;;;;;21.96;38.45;97130.63;4966958;28;20267;-67
2023/09/24 06:58:59;;;;;;;11.10;4.27;;;;;;;20.86;40.62;97137.19;4966800;28;20706;-66
2023/09/24 07:01:24;;;;;;;18.77;4.37;;;;;;;21.31;39.75;97138.25;4967358;28;20699;-69
2023/09/24 07:03:51;;;;;;;10.37;3.90;;;;;;;20.83;40.64;97132.91;4967194;28;20281;-68
2023/09/24 07:06:17;;;;;;;8.80;4.57;;;;;;;20.99;40.71;97137.97;4967310;28;20185;-70
2023/09/24 07:08:42;;;;;;;6.20;3.50;;;;;;;21.19;40.55;97132.94;4967376;28;20425;-69
2023/09/24 07:11:20;;;;;;;6.50;3.60;;;;;;;20.44;41.42;97140.16;4967515;28;20904;-70
2023/09/24 07:13:46;;;;;;;11.23;3.20;;;;;;;21.05;40.79;97131.34;4967452;28;20176;-69
2023/09/24 07:16:12;;;;;;;4.53;3.23;;;;;;;20.16;42.61;97138.59;4967285;28;20456;-67
2023/09/24 07:18:38;;;;;;;4.10;2.80;;;;;;;19.98;43.81;97138.06;4966848;28;20221;-68
2023/09/24 07:21:04;;;;;;;3.70;2.53;;;;;;;20.77;42.24;97140.53;4967331;28;20908;-68
2023/09/24 07:23:29;;;;;;;3.77;2.10;;;;;;;21.02;41.11;97139.56;4967030;28;20444;-68
2023/09/24 07:25:54;;;;;;;3.77;2.50;;;;;;;21.35;40.77;97133.50;4966902;28;20188;-69
2023/09/24 07:28:24;;;;;;;6.23;2.40;;;;;;;20.94;41.65;97148.13;4966513;28;20200;-69
2023/09/24 07:30:53;;;;;;;4.60;3.33;;;;;;;20.68;41.89;97142.88;4967147;28;20921;-67
2023/09/24 07:33:20;;;;;;;5.40;2.80;;;;;;;20.49;42.98;97146.00;4967231;28;20505;-68
2023/09/24 07:35:46;;;;;;;3.77;2.80;;;;;;;20.71;42.02;97144.47;4966524;28;20526;-69
2023/09/24 07:38:12;;;;;;;4.17;2.13;;;;;;;20.43;42.44;97151.81;4966506;28;20452;-68
2023/09/24 07:40:37;;;;;;;4.23;2.70;;;;;;;20.19;43.78;97151.69;4967688;28;20166;-70
2023/09/24 07:43:03;;;;;;;5.17;2.80;;;;;;;19.53;45.00;97158.91;4966677;28;20178;-68
2023/09/24 07:45:28;;;;;;;5.00;2.80;;;;;;;20.52;43.19;97155.59;4965171;28;20957;-68
2023/09/24 07:47:54;;;;;;;6.63;3.40;;;;;;;21.33;41.73;97154.13;4966406;28;20213;-68
2023/09/24 07:50:19;;;;;;;6.47;2.70;;;;;;;20.20;43.94;97158.75;4967136;28;20174;-68
2023/09/24 07:52:44;;;;;;;4.43;2.57;;;;;;;20.45;43.60;97159.66;4966876;28;20789;-69
2023/09/24 07:55:10;;;;;;;4.97;2.90;;;;;;;20.31;43.90;97165.97;4966712;28;20194;-68
2023/09/24 07:57:35;;;;;;;10.80;3.10;;;;;;;20.14;43.98;97164.50;4966544;28;20647;-69
2023/09/24 08:00:01;;;;;;;6.30;4.87;;;;;;;18.90;46.95;97167.53;4966929;28;20264;-69
2023/09/24 08:02:26;;;;;;;6.50;2.67;;;;;;;18.40;46.67;97176.00;4966790;28;20638;-67
2023/09/24 08:04:52;;;;;;;4.03;2.80;;;;;;;18.44;48.10;97179.31;4966794;28;20177;-69
2023/09/24 08:07:17;;;;;;;4.67;2.97;;;;;;;19.35;46.23;97176.13;4966421;28;20207;-70
2023/09/24 08:09:43;;;;;;;3.50;2.97;;;;;;;18.48;49.14;97177.31;4966651;28;20169;-68
2023/09/24 08:12:08;;;;;;;8.00;3.07;;;;;;;18.15;50.31;97186.44;4970184;28;20180;-67
2023/09/24 08:14:33;;;;;;;4.30;2.63;;;;;;;18.64;49.24;97178.06;4970232;28;20177;-69
2023/09/24 08:16:59;;;;;;;6.90;2.90;;;;;;;17.72;49.43;97189.88;4968291;28;20579;-69
2023/09/24 08:19:30;;;;;;;3.63;2.73;;;;;;;18.19;49.39;97180.00;4970652;28;20277;-68
2023/09/24 08:21:56;;;;;;;5.97;2.60;;;;;;;18.66;48.89;97180.59;4970617;28;20178;-69
2023/09/24 08:24:22;;;;;;;5.40;2.70;;;;;;;18.02;49.23;97181.00;4979112;28;20420;-68
2023/09/24 08:26:48;;;;;;;4.00;2.73;;;;;;;17.65;50.33;97182.38;4984360;28;20420;-69
2023/09/24 08:29:14;;;;;;;5.10;3.00;;;;;;;16.79;52.61;97195.28;4966206;28;20501;-66
2023/09/24 08:31:39;;;;;;;7.43;2.87;;;;;;;17.21;50.86;97199.94;4958391;28;20200;-67
2023/09/24 08:34:05;;;;;;;3.30;2.60;;;;;;;17.26;49.88;97199.69;4954101;28;20178;-66
2023/09/24 08:36:30;;;;;;;3.33;2.40;;;;;;;17.89;48.99;97186.22;4950695;28;20206;-69
2023/09/24 08:38:56;;;;;;;3.33;2.30;;;;;;;17.48;50.15;97186.88;4951032;28;20193;-69
2023/09/24 08:41:22;;;;;;;3.50;2.57;;;;;;;17.22;49.63;97193.72;4951134;28;20569;-67
2023/09/24 08:43:48;;;;;;;4.70;2.47;;;;;;;18.08;47.94;97188.63;4950906;28;20175;-68
2023/09/24 08:46:14;;;;;;;3.10;2.80;;;;;;;17.67;49.75;97194.63;4950617;28;20261;-67
2023/09/24 08:48:40;;;;;;;4.97;2.77;;;;;;;18.10;47.81;97186.72;4950977;28;20580;-68
2023/09/24 08:51:08;;;;;;;5.07;2.37;;;;;;;18.10;48.13;97188.53;4950665;28;20209;-69
2023/09/24 08:53:34;;;;;;;6.63;2.80;;;;;;;17.46;50.35;97188.78;4950638;28;20454;-68
2023/09/24 08:55:59;;;;;;;5.50;3.03;;;;;;;16.89;51.42;97199.13;4950035;28;20484;-67
2023/09/24 08:58:25;;;;;;;3.67;2.63;;;;;;;17.44;50.86;97193.31;4963702;28;20437;-69
2023/09/24 09:00:51;;;;;;;4.83;2.70;;;;;;;17.69;49.49;97205.13;4969600;28;20591;-67
2023/09/24 09:03:18;;;;;;;3.60;2.67;;;;;;;17.53;50.34;97208.69;4969610;28;20209;-69
2023/09/24 09:05:44;;;;;;;4.40;3.80;;;;;;;18.12;48.93;97192.81;4968928;28;20177;-68
2023/09/24 09:08:10;;;;;;;4.23;2.50;;;;;;;18.76;48.34;97185.25;4969500;28;20876;-65
2023/09/24 09:10:36;;;;;;;4.57;3.33;;;;;;;18.70;48.56;97193.59;4970028;28;20459;-68
2023/09/24 09:13:15;;;;;;;4.20;2.83;;;;;;;18.36;48.86;97185.09;4974714;28;20467;-69
2023/09/24 09:15:42;;;;;;;3.77;2.50;;;;;;;18.44;48.86;97186.44;4968802;28;20464;-69
2023/09/24 09:18:26;;;;;;;4.73;2.50;;;;;;;18.60;49.10;97180.03;4968816;28;20436;-69
2023/09/24 09:20:59;;;;;;;3.70;2.03;;;;;;;18.51;47.68;97179.78;4969239;28;20504;-68
2023/09/24 09:23:41;;;;;;;3.80;2.33;;;;;;;18.58;47.63;97179.28;4967960;28;20504;-67
2023/09/24 09:26:06;;;;;;;4.50;2.30;;;;;;;18.07;47.98;97186.94;4968439;28;20464;-69
2023/09/24 09:28:34;;;;;;;4.27;2.17;;;;;;;18.53;46.95;97183.19;4968190;28;20499;-69
2023/09/24 09:31:10;;;;;;;3.20;1.90;;;;;;;18.34;47.24;97192.31;4968666;28;20272;-69
2023/09/24 09:33:40;;;;;;;6.10;3.97;;;;;;;17.96;47.95;97190.22;4968663;28;20533;-69
2023/09/24 09:36:23;;;;;;;3.90;2.40;;;;;;;17.88;48.59;97188.97;4967966;28;20461;-69
2023/09/24 09:38:50;;;;;;;2.43;1.83;;;;;;;17.62;48.50;97188.69;4968489;28;20809;-68
2023/09/24 09:41:17;;;;;;;4.13;2.20;;;;;;;17.85;47.96;97186.50;4968541;28;20413;-67
2023/09/24 09:43:45;;;;;;;4.03;2.57;;;;;;;18.16;47.45;97178.34;4966443;28;20858;-68
2023/09/24 09:46:12;;;;;;;3.00;2.03;;;;;;;17.88;48.05;97175.69;4965400;28;20409;-69
2023/09/24 09:48:40;;;;;;;3.10;2.50;;;;;;;18.06;47.59;97187.00;4965565;28;20448;-69
2023/09/24 09:51:07;;;;;;;5.97;2.47;;;;;;;17.47;49.48;97177.19;4965773;28;20931;-68
2023/09/24 09:53:37;;;;;;;3.83;2.43;;;;;;;17.87;47.97;97174.84;4965557;28;20421;-69
2023/09/24 09:56:07;;;;;;;4.43;2.60;;;;;;;17.43;48.94;97175.66;4965247;28;20492;-68
2023/09/24 09:58:36;;;;;;;4.17;2.33;;;;;;;18.09;48.20;97179.69;4965531;28;20990;-67
2023/09/24 10:01:03;;;;;;;3.37;2.23;;;;;;;18.26;47.86;97177.78;4965637;28;20477;-69
2023/09/24 10:03:33;;;;;;;3.30;1.97;;;;;;;19.02;45.08;97169.44;4965846;28;21124;-68
2023/09/24 10:06:00;;;;;;;3.23;2.40;;;;;;;18.35;46.72;97177.22;4965145;28;20401;-66
2023/09/24 10:08:45;;;;;;;5.83;3.03;;;;;;;18.46;46.35;97168.59;4965936;28;20809;-69
2023/09/24 10:11:32;;;;;;;4.43;2.13;;;;;;;18.72;46.14;97173.09;4965390;28;20495;-68
2023/09/24 10:14:00;;;;;;;2.30;1.73;;;;;;;18.86;45.22;97171.38;4964871;28;20943;-67
2023/09/24 10:16:25;;;;;;;2.83;1.83;;;;;;;18.36;45.24;97178.94;4965201;28;20464;-69
2023/09/24 10:18:57;;;;;;;3.80;1.60;;;;;;;17.96;46.58;97170.78;4964844;28;20444;-69
2023/09/24 10:21:33;;;;;;;5.63;2.63;;;;;;;18.11;45.96;97177.78;4965937;28;20200;-68
2023/09/24 10:24:28;;;;;;;3.67;1.90;;;;;;;18.22;45.01;97166.50;4965112;28;20431;-69
2023/09/24 10:27:06;;;;;;;3.50;1.70;;;;;;;18.42;44.52;97170.56;4961783;28;20425;-68
2023/09/24 10:29:49;;;;;;;3.67;1.70;;;;;;;18.44;45.09;97166.00;4965270;28;21221;-68
2023/09/24 10:32:17;;;;;;;4.67;2.07;;;;;;;18.86;44.35;97174.03;4965234;28;20971;-69
2023/09/24 10:34:54;;;;;;;3.50;1.80;;;;;;;18.77;43.75;97163.03;4964625;28;20759;-68
2023/09/24 10:37:31;;;;;;;3.33;1.30;;;;;;;18.63;44.49;97166.53;4964184;28;20456;-68
2023/09/24 10:39:59;;;;;;;5.10;1.70;;;;;;;18.73;44.24;97166.84;4960837;28;20474;-67
2023/09/24 10:42:30;;;;;;;12.10;2.83;;;;;;;19.24;43.67;97163.53;4965367;28;20459;-69
2023/09/24 10:45:08;;;;;;;3.03;1.47;;;;;;;19.49;41.61;97162.75;4964500;28;20432;-68
2023/09/24 10:47:38;;;;;;;2.50;1.63;;;;;;;19.17;42.56;97168.41;4964255;28;20444;-69
2023/09/24 10:50:06;;;;;;;3.07;1.63;;;;;;;18.55;43.40;97158.22;4961447;28;20425;-68
2023/09/24 10:52:53;;;;;;;2.83;1.43;;;;;;;18.47;43.69;97163.16;4964621;28;20754;-69
2023/09/24 10:55:30;;;;;;;3.00;1.70;;;;;;;18.35;43.65;97162.16;4964522;28;20879;-68
2023/09/24 10:57:58;;;;;;;3.00;2.23;;;;;;;18.98;42.32;97154.63;4964812;28;20480;-68
2023/09/24 11:00:25;;;;;;;5.90;3.70;;;;;;;18.56;43.04;97154.59;4965209;28;20413;-67
2023/09/24 11:03:02;;;;;;;2.90;1.80;;;;;;;18.45;43.28;97156.22;4964305;28;20409;-69
2023/09/24 11:05:29;;;;;;;2.37;1.43;;;;;;;18.76;42.50;97145.38;4964343;28;21077;-68
2023/09/24 11:07:55;;;;;;;5.70;2.10;;;;;;;18.73;43.91;97150.88;4963797;28;20470;-68
2023/09/24 11:10:23;;;;;;;51.10;4.67;;;;;;;18.88;42.98;97145.53;4964739;28;20436;-67
2023/09/24 11:12:50;;;;;;;7.07;2.10;;;;;;;18.65;43.87;97153.16;4964532;28;20421;-68
2023/09/24 11:15:17;;;;;;;4.00;1.97;;;;;;;18.46;44.63;97140.19;4964446;28;20497;-68
2023/09/24 11:17:45;;;;;;;10.13;2.33;;;;;;;19.16;43.10;97136.59;4964002;28;20539;-68
2023/09/24 11:20:11;;;;;;;5.93;1.83;;;;;;;18.88;42.38;97134.91;4964115;28;20452;-68
2023/09/24 11:22:37;;;;;;;3.87;2.00;;;;;;;19.06;42.19;97141.66;4964399;28;20515;-67
2023/09/24 11:25:13;;;;;;;2.90;1.70;;;;;;;19.02;43.52;97130.38;4963692;28;20500;-68
2023/09/24 11:27:48;;;;;;;4.57;1.90;;;;;;;18.85;44.09;97132.44;4964356;28;20924;-69
2023/09/24 11:30:15;;;;;;;2.80;1.90;;;;;;;19.17;43.12;97131.16;4964349;28;20500;-68
2023/09/24 11:32:42;;;;;;;1.80;1.30;;;;;;;19.03;42.88;97129.41;4964349;28;20515;-68
2023/09/24 11:35:09;;;;;;;6.60;1.73;;;;;;;19.05;42.24;97124.00;4964965;28;20433;-65
2023/09/24 11:37:56;;;;;;;3.70;1.90;;;;;;;19.45;41.48;97116.00;4966484;28;20535;-67